createdAt,value
2019-01-30T00:01:42.195Z,29.33
2019-01-30T00:04:09.712Z,25.70
2019-01-30T00:06:37.097Z,30.20
2019-01-30T00:09:08.491Z,26.93
2019-01-30T00:11:36.122Z,29.10
2019-01-30T00:14:04.217Z,29.00
2019-01-30T00:16:31.731Z,29.07
2019-01-30T00:18:59.297Z,26.87
2019-01-30T00:21:27.140Z,24.87
2019-01-30T00:24:14.723Z,26.90
2019-01-30T00:26:42.584Z,28.63
2019-01-30T00:29:10.705Z,27.10
2019-01-30T00:31:39.666Z,29.15
2019-01-30T00:34:07.199Z,26.47
2019-01-30T00:36:34.879Z,25.80
2019-01-30T00:39:04.668Z,25.90
2019-01-30T00:41:34.186Z,25.83
2019-01-30T00:44:01.723Z,26.43
2019-01-30T00:46:29.254Z,26.30
2019-01-30T00:48:56.901Z,27.27
2019-01-30T00:51:24.494Z,22.47
2019-01-30T00:53:52.074Z,29.97
2019-01-30T00:56:19.635Z,23.47
2019-01-30T00:58:47.110Z,27.00
2019-01-30T01:01:15.146Z,24.87
2019-01-30T01:03:42.840Z,25.40
2019-01-30T01:06:10.650Z,24.37
2019-01-30T01:08:38.308Z,26.23
2019-01-30T01:11:06.099Z,29.60
2019-01-30T01:13:33.764Z,28.70
2019-01-30T01:16:20.868Z,26.05
2019-01-30T01:18:48.621Z,23.77
2019-01-30T01:21:16.172Z,21.57
2019-01-30T01:23:43.652Z,24.87
2019-01-30T01:26:11.347Z,24.87
2019-01-30T01:28:38.955Z,19.90
2019-01-30T01:31:06.579Z,23.10
2019-01-30T01:33:34.267Z,22.73
2019-01-30T01:36:02.433Z,22.47
2019-01-30T01:38:29.973Z,24.65
2019-01-30T01:40:57.615Z,26.30
2019-01-30T01:43:25.228Z,21.17
2019-01-30T01:45:52.651Z,27.58
2019-01-30T01:48:20.168Z,22.48
2019-01-30T01:50:47.659Z,23.50
2019-01-30T01:53:15.299Z,24.27
2019-01-30T01:55:46.361Z,22.07
2019-01-30T01:58:14.040Z,18.77
2019-01-30T02:00:41.618Z,19.70
2019-01-30T02:03:09.185Z,22.73
2019-01-30T02:05:36.798Z,25.23
2019-01-30T02:08:04.368Z,25.50
2019-01-30T02:10:31.928Z,23.30
2019-01-30T02:12:59.387Z,21.07
2019-01-30T02:15:26.884Z,24.57
2019-01-30T02:17:54.365Z,22.80
2019-01-30T02:20:24.694Z,21.87
2019-01-30T02:22:52.213Z,23.10
2019-01-30T02:25:19.740Z,21.57
2019-01-30T02:27:47.290Z,20.37
2019-01-30T02:30:20.346Z,22.60
2019-01-30T02:32:47.860Z,22.93
2019-01-30T02:35:15.402Z,20.73
2019-01-30T02:37:43.070Z,25.57
2019-01-30T02:40:12.832Z,22.83
2019-01-30T02:42:40.432Z,18.50
2019-01-30T02:45:09.298Z,18.67
2019-01-30T02:47:36.868Z,19.97
2019-01-30T02:50:07.214Z,20.27
2019-01-30T02:52:34.878Z,22.30
2019-01-30T02:55:03.441Z,19.85
2019-01-30T02:57:31.315Z,20.80
2019-01-30T02:59:58.811Z,24.60
2019-01-30T03:02:26.243Z,20.40
2019-01-30T03:04:53.662Z,20.35
2019-01-30T03:07:21.084Z,21.23
2019-01-30T03:09:48.540Z,20.48
2019-01-30T03:12:16.123Z,21.70
2019-01-30T03:14:43.664Z,16.87
2019-01-30T03:17:11.167Z,21.57
2019-01-30T03:19:38.760Z,20.83
2019-01-30T03:22:06.210Z,19.33
2019-01-30T03:24:33.859Z,20.73
2019-01-30T03:27:01.307Z,18.05
2019-01-30T03:29:28.822Z,22.20
2019-01-30T03:31:56.368Z,20.63
2019-01-30T03:34:23.893Z,17.03
2019-01-30T03:36:51.371Z,23.27
2019-01-30T03:39:18.955Z,18.93
2019-01-30T03:41:46.535Z,17.48
2019-01-30T03:44:14.125Z,21.43
2019-01-30T03:46:41.944Z,19.57
2019-01-30T03:49:09.457Z,16.17
2019-01-30T03:51:36.916Z,19.23
2019-01-30T03:54:04.425Z,20.67
2019-01-30T03:56:32.052Z,16.33
2019-01-30T03:58:59.532Z,20.60
2019-01-30T04:01:31.010Z,20.92
2019-01-30T04:03:58.544Z,18.20
2019-01-30T04:06:26.096Z,19.25
2019-01-30T04:08:53.696Z,14.83
2019-01-30T04:11:21.286Z,22.87
2019-01-30T04:13:48.932Z,20.30
2019-01-30T04:16:16.661Z,20.33
2019-01-30T04:18:44.329Z,19.47
2019-01-30T04:21:11.942Z,19.90
2019-01-30T04:23:39.473Z,17.40
2019-01-30T04:26:06.989Z,19.20
2019-01-30T04:28:34.561Z,20.40
2019-01-30T04:31:02.214Z,16.30
2019-01-30T04:33:29.720Z,14.83
2019-01-30T04:35:57.223Z,15.97
2019-01-30T04:38:24.883Z,17.02
2019-01-30T04:40:52.343Z,17.07
2019-01-30T04:43:19.831Z,16.73
2019-01-30T04:45:47.515Z,19.03
2019-01-30T04:48:15.230Z,18.27
2019-01-30T04:50:42.593Z,18.80
2019-01-30T04:53:10.975Z,18.27
2019-01-30T04:55:38.763Z,20.90
2019-01-30T04:58:06.151Z,20.67
2019-01-30T05:00:33.662Z,16.60
2019-01-30T05:03:20.613Z,16.15
2019-01-30T05:05:48.278Z,18.07
2019-01-30T05:08:15.796Z,20.80
2019-01-30T05:10:43.192Z,19.20
2019-01-30T05:13:10.647Z,17.55
2019-01-30T05:15:38.561Z,20.20
2019-01-30T05:18:05.986Z,18.45
2019-01-30T05:20:33.509Z,18.97
2019-01-30T05:23:01.013Z,19.23
2019-01-30T05:25:29.860Z,21.33
2019-01-30T05:27:57.292Z,19.60
2019-01-30T05:30:47.287Z,18.10
2019-01-30T05:33:14.800Z,21.70
2019-01-30T05:35:42.480Z,17.40
2019-01-30T05:38:29.695Z,22.30
2019-01-30T05:40:57.258Z,20.27
2019-01-30T05:43:24.878Z,20.10
2019-01-30T05:45:52.341Z,20.08
2019-01-30T05:48:59.654Z,21.93
2019-01-30T05:51:27.214Z,16.93
2019-01-30T05:53:54.757Z,18.20
2019-01-30T05:56:22.239Z,20.23
2019-01-30T05:58:49.882Z,15.97
2019-01-30T06:01:17.522Z,20.07
2019-01-30T06:03:45.227Z,17.60
2019-01-30T06:06:12.801Z,20.93
2019-01-30T06:08:42.159Z,23.55
2019-01-30T06:11:12.155Z,22.70
2019-01-30T06:13:39.414Z,19.32
2019-01-30T06:16:07.018Z,18.17
2019-01-30T06:18:34.640Z,20.63
2019-01-30T06:21:02.326Z,22.90
2019-01-30T06:23:29.915Z,22.17
2019-01-30T06:25:57.436Z,20.30
2019-01-30T06:28:28.671Z,21.20
2019-01-30T06:30:54.741Z,22.33
2019-01-30T06:33:22.142Z,25.53
2019-01-30T06:35:49.645Z,22.63
2019-01-30T06:38:17.184Z,21.37
2019-01-30T06:40:44.903Z,19.97
2019-01-30T06:43:12.392Z,21.53
2019-01-30T06:45:39.978Z,21.77
2019-01-30T06:48:07.455Z,21.47
2019-01-30T06:50:34.951Z,23.90
2019-01-30T06:53:02.427Z,19.45
2019-01-30T06:55:29.979Z,26.90
2019-01-30T06:57:57.367Z,19.57
2019-01-30T07:00:25.872Z,20.83
2019-01-30T07:02:54.021Z,19.40
2019-01-30T07:05:21.465Z,18.73
2019-01-30T07:07:48.874Z,21.23
2019-01-30T07:10:18.531Z,19.60
2019-01-30T07:12:46.094Z,17.60
2019-01-30T07:15:13.598Z,19.43
2019-01-30T07:17:41.023Z,18.80
2019-01-30T07:20:09.026Z,15.77
2019-01-30T07:22:37.608Z,22.40
2019-01-30T07:25:06.400Z,19.20
2019-01-30T07:27:33.977Z,15.87
2019-01-30T07:30:02.591Z,18.73
2019-01-30T07:32:30.302Z,20.80
2019-01-30T07:34:57.686Z,18.70
2019-01-30T07:37:25.094Z,19.60
2019-01-30T07:39:52.506Z,18.73
2019-01-30T07:42:20.070Z,14.90
2019-01-30T07:44:50.840Z,18.73
2019-01-30T07:47:16.883Z,18.77
2019-01-30T07:49:44.430Z,24.17
2019-01-30T07:52:12.034Z,15.17
2019-01-30T07:54:39.478Z,17.07
2019-01-30T07:57:06.992Z,18.20
2019-01-30T07:59:34.457Z,20.50
2019-01-30T08:02:04.095Z,15.93
2019-01-30T08:04:31.787Z,15.40
2019-01-30T08:06:59.364Z,16.60
2019-01-30T08:09:26.981Z,17.13
2019-01-30T08:11:54.538Z,23.90
2019-01-30T08:14:22.120Z,19.37
2019-01-30T08:16:49.781Z,17.80
2019-01-30T08:19:17.463Z,15.30
2019-01-30T08:21:44.966Z,16.30
2019-01-30T08:24:12.534Z,16.07
2019-01-30T08:26:40.227Z,20.67
2019-01-30T08:29:08.364Z,21.07
2019-01-30T08:31:36.268Z,16.50
2019-01-30T08:34:23.506Z,19.10
2019-01-30T08:36:50.998Z,16.33
2019-01-30T08:39:18.650Z,17.37
2019-01-30T08:41:46.121Z,15.23
2019-01-30T08:44:13.584Z,18.93
2019-01-30T08:46:41.266Z,16.57
2019-01-30T08:49:08.940Z,16.90
2019-01-30T08:51:36.662Z,18.23
2019-01-30T08:54:04.572Z,18.40
2019-01-30T08:56:38.713Z,19.00
2019-01-30T08:59:01.448Z,15.23
2019-01-30T09:01:28.986Z,18.53
2019-01-30T09:03:56.326Z,16.07
2019-01-30T09:06:23.815Z,16.60
2019-01-30T09:08:51.290Z,19.63
2019-01-30T09:11:18.838Z,20.80
2019-01-30T09:13:46.329Z,18.20
2019-01-30T09:16:13.730Z,23.67
2019-01-30T09:18:41.381Z,21.17
2019-01-30T09:21:08.993Z,21.27
2019-01-30T09:23:36.539Z,20.70
2019-01-30T09:26:04.637Z,21.37
2019-01-30T09:28:32.162Z,20.23
2019-01-30T09:30:59.427Z,21.00
2019-01-30T09:33:26.846Z,19.90
2019-01-30T09:35:54.300Z,23.33
2019-01-30T09:38:21.834Z,28.30
2019-01-30T09:40:52.080Z,21.87
2019-01-30T09:43:19.786Z,17.73
2019-01-30T09:45:47.266Z,30.40
2019-01-30T09:48:14.656Z,20.00
2019-01-30T09:50:42.111Z,25.67
2019-01-30T09:53:09.603Z,15.90
2019-01-30T09:55:37.168Z,20.57
2019-01-30T09:58:05.930Z,20.77
2019-01-30T10:00:35.214Z,19.20
2019-01-30T10:03:02.747Z,19.43
2019-01-30T10:05:30.494Z,17.13
2019-01-30T10:07:57.934Z,17.60
2019-01-30T10:10:27.777Z,17.50
2019-01-30T10:12:55.330Z,18.60
2019-01-30T10:15:24.765Z,17.53
2019-01-30T10:17:52.171Z,20.53
2019-01-30T10:20:22.063Z,14.97
2019-01-30T10:22:49.589Z,17.27
2019-01-30T10:25:17.455Z,18.50
2019-01-30T10:27:44.990Z,18.33
2019-01-30T10:30:15.322Z,16.23
2019-01-30T10:32:42.835Z,16.93
2019-01-30T10:35:10.447Z,24.87
2019-01-30T10:37:38.017Z,17.70
2019-01-30T10:40:08.160Z,16.60
2019-01-30T10:42:35.687Z,18.23
2019-01-30T10:45:04.941Z,16.20
2019-01-30T10:47:32.306Z,17.03
2019-01-30T10:49:59.949Z,16.70
2019-01-30T10:52:49.442Z,14.40
2019-01-30T10:55:19.032Z,17.70
2019-01-30T10:57:47.999Z,15.87
2019-01-30T11:00:18.337Z,16.00
2019-01-30T11:02:46.528Z,17.37
2019-01-30T11:05:14.913Z,16.27
2019-01-30T11:07:45.784Z,17.57
2019-01-30T11:10:16.087Z,16.40
2019-01-30T11:12:44.517Z,14.83
2019-01-30T11:15:14.352Z,16.60
2019-01-30T11:17:41.757Z,17.70
2019-01-30T11:20:10.686Z,17.07
2019-01-30T11:22:38.440Z,16.60
2019-01-30T11:25:09.182Z,18.77
2019-01-30T11:27:36.771Z,16.47
2019-01-30T11:30:06.113Z,17.87
2019-01-30T11:32:33.606Z,14.67
2019-01-30T11:35:01.154Z,14.13
2019-01-30T11:37:28.749Z,12.37
2019-01-30T11:39:56.273Z,16.33
2019-01-30T11:42:23.788Z,17.90
2019-01-30T11:44:51.298Z,14.00
2019-01-30T11:47:18.771Z,13.50
2019-01-30T11:49:46.342Z,12.90
2019-01-30T11:52:13.830Z,17.03
2019-01-30T11:54:41.407Z,11.97
2019-01-30T11:57:08.918Z,12.23
2019-01-30T11:59:36.466Z,14.27
2019-01-30T12:02:04.859Z,12.67
2019-01-30T12:04:32.475Z,12.97
2019-01-30T12:07:00.042Z,12.53
2019-01-30T12:09:27.590Z,11.67
2019-01-30T12:11:55.117Z,16.97
2019-01-30T12:14:28.534Z,12.07
2019-01-30T12:16:56.010Z,14.13
2019-01-30T12:19:23.572Z,11.00
2019-01-30T12:21:50.985Z,18.33
2019-01-30T12:24:18.496Z,13.13
2019-01-30T12:26:46.140Z,13.13
2019-01-30T12:29:13.658Z,12.07
2019-01-30T12:31:41.162Z,14.13
2019-01-30T12:34:09.695Z,12.53
2019-01-30T12:36:37.230Z,12.93
2019-01-30T12:39:08.724Z,12.07
2019-01-30T12:41:36.431Z,11.83
2019-01-30T12:44:06.069Z,11.10
2019-01-30T12:46:33.571Z,11.10
2019-01-30T12:49:01.083Z,14.83
2019-01-30T12:51:29.667Z,12.47
2019-01-30T12:53:56.999Z,12.97
2019-01-30T12:56:24.482Z,14.13
2019-01-30T12:58:51.922Z,11.43
2019-01-30T13:01:19.249Z,13.50
2019-01-30T13:03:46.774Z,13.73
2019-01-30T13:06:14.318Z,13.47
2019-01-30T13:08:41.883Z,13.30
2019-01-30T13:11:09.474Z,12.93
2019-01-30T13:13:36.857Z,12.43
2019-01-30T13:16:04.622Z,14.93
2019-01-30T13:18:32.333Z,14.50
2019-01-30T13:20:59.911Z,12.67
2019-01-30T13:23:27.438Z,12.83
2019-01-30T13:25:55.965Z,15.33
2019-01-30T13:28:23.652Z,13.00
2019-01-30T13:30:51.070Z,15.20
2019-01-30T13:33:18.539Z,11.90
2019-01-30T13:35:46.102Z,15.27
2019-01-30T13:38:13.574Z,11.33
2019-01-30T13:40:41.499Z,15.03
2019-01-30T13:43:08.913Z,12.40
2019-01-30T13:45:36.421Z,15.30
2019-01-30T13:48:07.841Z,12.73
2019-01-30T13:50:35.383Z,12.07
2019-01-30T13:53:03.316Z,10.77
2019-01-30T13:55:30.904Z,13.27
2019-01-30T13:57:58.420Z,11.30
2019-01-30T14:00:29.093Z,13.60
2019-01-30T14:02:56.710Z,12.20
2019-01-30T14:05:24.313Z,12.03
2019-01-30T14:07:52.379Z,12.03
2019-01-30T14:10:19.998Z,13.40
2019-01-30T14:12:48.562Z,11.83
2019-01-30T14:15:18.264Z,11.80
2019-01-30T14:17:45.827Z,10.37
2019-01-30T14:20:14.246Z,13.47
2019-01-30T14:22:41.844Z,15.30
2019-01-30T14:25:10.339Z,13.63
2019-01-30T14:27:37.901Z,10.17
2019-01-30T14:30:11.708Z,13.60
2019-01-30T14:32:39.310Z,11.17
2019-01-30T14:35:10.777Z,12.37
2019-01-30T14:37:36.962Z,13.33
2019-01-30T14:40:06.096Z,15.30
2019-01-30T14:42:33.771Z,14.97
2019-01-30T14:45:01.567Z,11.80
2019-01-30T14:47:29.086Z,14.80
2019-01-30T14:49:59.897Z,13.30
2019-01-30T14:52:27.386Z,13.43
2019-01-30T14:54:55.016Z,11.43
2019-01-30T14:57:22.552Z,12.03
2019-01-30T14:59:50.186Z,11.90
2019-01-30T15:02:17.793Z,12.27
2019-01-30T15:04:45.475Z,11.90
2019-01-30T15:07:13.186Z,12.70
2019-01-30T15:09:40.943Z,11.77
2019-01-30T15:12:08.485Z,14.70
2019-01-30T15:14:36.007Z,14.53
2019-01-30T15:17:03.801Z,14.17
2019-01-30T15:19:31.422Z,11.30
2019-01-30T15:21:59.120Z,13.70
2019-01-30T15:24:26.945Z,11.47
2019-01-30T15:26:54.491Z,12.70
2019-01-30T15:29:22.116Z,15.47
2019-01-30T15:31:49.722Z,11.40
2019-01-30T15:34:17.383Z,12.90
2019-01-30T15:36:45.001Z,10.60
2019-01-30T15:39:12.637Z,12.47
2019-01-30T15:41:40.191Z,9.80
2019-01-30T15:44:10.761Z,11.77
2019-01-30T15:46:39.418Z,13.27
2019-01-30T15:49:07.925Z,11.57
2019-01-30T15:51:35.578Z,13.43
2019-01-30T15:54:03.620Z,13.17
2019-01-30T15:56:31.281Z,11.80
2019-01-30T15:58:58.905Z,11.90
2019-01-30T16:01:32.843Z,14.90
2019-01-30T16:04:00.282Z,12.17
2019-01-30T16:06:31.653Z,16.97
2019-01-30T16:08:59.157Z,15.93
2019-01-30T16:11:26.681Z,14.73
2019-01-30T16:13:54.241Z,15.27
2019-01-30T16:16:21.782Z,14.93
2019-01-30T16:18:49.227Z,14.87
2019-01-30T16:21:16.940Z,14.67
2019-01-30T16:23:44.487Z,16.63
2019-01-30T16:26:12.049Z,15.70
2019-01-30T16:28:39.673Z,12.30
2019-01-30T16:31:07.242Z,15.70
2019-01-30T16:33:34.831Z,15.00
2019-01-30T16:36:02.281Z,14.97
2019-01-30T16:38:29.848Z,16.60
2019-01-30T16:40:57.467Z,18.20
2019-01-30T16:43:25.002Z,18.90
2019-01-30T16:45:52.649Z,15.60
2019-01-30T16:48:20.083Z,17.17
2019-01-30T16:50:47.575Z,13.60
2019-01-30T16:53:15.284Z,17.23
2019-01-30T16:55:43.070Z,15.77
2019-01-30T16:58:11.385Z,16.23
2019-01-30T17:00:39.863Z,18.97
2019-01-30T17:03:07.510Z,16.37
2019-01-30T17:05:35.397Z,18.97
2019-01-30T17:08:03.474Z,15.27
2019-01-30T17:10:31.071Z,16.80
2019-01-30T17:12:58.409Z,14.47
2019-01-30T17:15:28.211Z,18.37
2019-01-30T17:17:55.646Z,19.70
2019-01-30T17:20:29.634Z,19.57
2019-01-30T17:22:57.134Z,15.47
2019-01-30T17:25:25.282Z,17.70
2019-01-30T17:28:14.134Z,18.30
2019-01-30T17:30:48.218Z,15.87
2019-01-30T17:33:19.201Z,18.37
2019-01-30T17:35:46.804Z,18.53
2019-01-30T17:38:14.249Z,19.67
2019-01-30T17:40:42.527Z,19.37
2019-01-30T17:43:11.313Z,18.43
2019-01-30T17:45:38.901Z,22.90
2019-01-30T17:48:10.574Z,17.97
2019-01-30T17:50:38.067Z,20.20
2019-01-30T17:53:05.679Z,20.77
2019-01-30T17:55:33.343Z,17.97
2019-01-30T17:58:05.413Z,16.07
2019-01-30T18:00:46.515Z,19.17
2019-01-30T18:03:13.118Z,20.07
2019-01-30T18:05:40.849Z,19.03
2019-01-30T18:08:08.158Z,21.07
2019-01-30T18:10:35.698Z,17.63
2019-01-30T18:13:03.467Z,20.23
2019-01-30T18:15:31.012Z,20.50
2019-01-30T18:17:58.597Z,19.70
2019-01-30T18:20:26.170Z,21.23
2019-01-30T18:22:53.989Z,18.70
2019-01-30T18:25:21.723Z,22.13
2019-01-30T18:27:49.222Z,19.07
2019-01-30T18:30:17.390Z,20.17
2019-01-30T18:32:45.066Z,20.77
2019-01-30T18:35:12.970Z,21.40
2019-01-30T18:37:40.326Z,18.23
2019-01-30T18:40:13.101Z,23.50
2019-01-30T18:42:40.698Z,21.00
2019-01-30T18:45:09.762Z,19.20
2019-01-30T18:47:38.357Z,22.20
2019-01-30T18:50:08.337Z,18.90
2019-01-30T18:52:36.093Z,18.90
2019-01-30T18:55:04.610Z,23.23
2019-01-30T18:57:32.022Z,21.97
2019-01-30T18:59:59.777Z,19.67
2019-01-30T19:02:27.449Z,19.10
2019-01-30T19:04:55.081Z,19.47
2019-01-30T19:07:22.859Z,18.10
2019-01-30T19:09:50.410Z,20.50
2019-01-30T19:12:17.950Z,23.60
2019-01-30T19:14:45.404Z,19.50
2019-01-30T19:17:13.087Z,16.37
2019-01-30T19:19:40.608Z,18.83
2019-01-30T19:22:10.294Z,19.20
2019-01-30T19:24:41.471Z,21.90
2019-01-30T19:27:09.241Z,17.87
2019-01-30T19:29:36.976Z,24.47
2019-01-30T19:32:04.636Z,23.90
2019-01-30T19:34:32.426Z,22.90
2019-01-30T19:37:03.577Z,22.40
2019-01-30T19:39:31.472Z,20.70
2019-01-30T19:41:58.999Z,20.13
2019-01-30T19:44:26.680Z,18.23
2019-01-30T19:46:55.950Z,22.43
2019-01-30T19:49:24.910Z,23.30
2019-01-30T19:51:53.252Z,21.80
2019-01-30T19:54:23.022Z,19.27
2019-01-30T19:56:50.834Z,18.03
2019-01-30T19:59:18.447Z,21.10
2019-01-30T20:01:45.992Z,21.57
2019-01-30T20:04:15.910Z,20.50
2019-01-30T20:06:43.508Z,25.83
2019-01-30T20:09:16.154Z,22.50
2019-01-30T20:11:43.915Z,23.17
2019-01-30T20:14:11.706Z,21.97
2019-01-30T20:16:40.192Z,19.73
2019-01-30T20:19:07.722Z,19.17
2019-01-30T20:21:35.343Z,26.93
2019-01-30T20:24:02.872Z,22.07
2019-01-30T20:26:30.590Z,23.27
2019-01-30T20:28:58.100Z,19.27
2019-01-30T20:31:25.963Z,21.27
2019-01-30T20:34:09.752Z,22.00
2019-01-30T20:36:29.753Z,21.70
2019-01-30T20:38:58.324Z,20.37
2019-01-30T20:41:31.488Z,19.00
2019-01-30T20:44:00.455Z,23.63
2019-01-30T20:46:29.401Z,20.63
2019-01-30T20:48:57.535Z,19.60
2019-01-30T20:51:26.274Z,24.13
2019-01-30T20:53:54.914Z,20.37
2019-01-30T20:56:26.661Z,22.77
2019-01-30T20:58:58.717Z,22.03
2019-01-30T21:01:26.466Z,20.73
2019-01-30T21:03:58.669Z,22.10
2019-01-30T21:06:28.169Z,22.37
2019-01-30T21:08:56.080Z,23.00
2019-01-30T21:11:24.697Z,22.17
2019-01-30T21:13:59.339Z,20.00
2019-01-30T21:16:47.361Z,23.77
2019-01-30T21:19:17.164Z,22.43
2019-01-30T21:21:45.828Z,21.87
2019-01-30T21:24:36.717Z,25.50
2019-01-30T21:27:06.615Z,20.90
2019-01-30T21:29:35.283Z,25.83
2019-01-30T21:32:04.701Z,23.40
2019-01-30T21:34:35.415Z,23.23
2019-01-30T21:37:06.555Z,22.03
2019-01-30T21:39:36.681Z,24.03
2019-01-30T21:42:12.663Z,25.83
2019-01-30T21:44:40.248Z,24.33
2019-01-30T21:47:07.899Z,21.93
2019-01-30T21:49:35.500Z,29.07
2019-01-30T21:52:03.111Z,21.63
2019-01-30T21:54:30.855Z,25.20
2019-01-30T21:56:58.378Z,23.60
2019-01-30T21:59:25.810Z,24.23
2019-01-30T22:01:53.375Z,26.70
2019-01-30T22:04:20.946Z,25.90
2019-01-30T22:06:48.469Z,26.70
2019-01-30T22:09:16.231Z,26.73
2019-01-30T22:11:43.790Z,23.77
2019-01-30T22:14:11.181Z,26.03
2019-01-30T22:16:38.624Z,25.70
2019-01-30T22:19:06.266Z,24.60
2019-01-30T22:21:33.819Z,24.67
2019-01-30T22:24:05.503Z,27.27
2019-01-30T22:26:30.906Z,25.83
2019-01-30T22:28:59.478Z,29.57
2019-01-30T22:31:27.016Z,24.07
2019-01-30T22:33:54.543Z,27.20
2019-01-30T22:36:22.111Z,29.77
2019-01-30T22:38:49.660Z,23.93
2019-01-30T22:41:17.261Z,27.07
2019-01-30T22:43:45.161Z,26.80
2019-01-30T22:46:12.726Z,24.53
2019-01-30T22:48:40.290Z,29.30
2019-01-30T22:51:07.827Z,31.67
2019-01-30T22:53:35.287Z,33.33
2019-01-30T22:56:03.021Z,27.33
2019-01-30T22:58:30.410Z,27.77
2019-01-30T23:01:23.806Z,29.90
2019-01-30T23:04:33.318Z,28.30
2019-01-30T23:07:52.247Z,30.03
2019-01-30T23:10:54.374Z,32.37
2019-01-30T23:13:39.578Z,27.83
2019-01-30T23:16:31.326Z,32.63
2019-01-30T23:19:19.328Z,31.63
2019-01-30T23:22:09.378Z,28.57
2019-01-30T23:25:30.989Z,28.47
2019-01-30T23:28:05.590Z,31.80
2019-01-30T23:30:45.637Z,28.07
2019-01-30T23:33:42.528Z,31.63
2019-01-30T23:36:54.621Z,34.00
2019-01-30T23:39:59.573Z,33.20
2019-01-30T23:43:11.085Z,33.50
2019-01-30T23:46:14.459Z,34.87
2019-01-30T23:48:53.090Z,34.00
2019-01-30T23:52:14.154Z,34.93
2019-01-30T23:55:20.697Z,35.60
2019-01-30T23:58:30.047Z,37.73
